Aérodrome :
LOGIN :

S'inscrire | Disclaimer

   EN    FR    IT 

 










Légende :    VFR   VFR Marginal   IFR   IFR Intensif   IFR Très Intensif
Visi : 
Plafond : 
>= 8 km
>= 3000ft
5 à 8 km
1000 à 3000 ft
1500m à 5 km
500 à 1000 ft
800 à 1500m
200 à 500 ft
< 800m
< 200 ft
Symboles :   Orages  Brouillard  Fortes neiges  Fortes précipitations  Vent > 20 kt
SIGMETs :   Divers  Orages  Givrage  Turbulence  Onde Orograph.  Cendres Volcan.







- Altitude de l'aérodrome : 1367 ft
- Code IATA : FDH


EDNY - Friedrichshafen

DERNIER METAR :
  • 211050Z VRB03KT CAVOK 16/09 Q1020

METARs EXPIRÉS :
  • 211020Z VRB02KT CAVOK 16/09 Q1021
  • 210950Z VRB02KT CAVOK 14/07 Q1021
  • 210920Z VRB02KT CAVOK 13/07 Q1022
  • 210850Z VRB02KT CAVOK 12/07 Q1022
  • 210820Z VRB03KT CAVOK 12/07 Q1022

TAF TAF EDNY
Valide du 21 à 06h jusqu'au 22 à 06h UTC


210500Z 2106/2206 03002KT CAVOK
BECMG 2108/2110 24005KT
BECMG 2115/2117 05003KT
Pas de NOTAMs connus pour ce terrain.



MET'MAP, la Météo Aéronautique d'un coup d'oeil ! - Copyright ORBIFLY Décembre 2007 - Disclaimer

ORBIFLY MET'MAP TEAM :

Programmation & Développement : Alexandra Zaïnal
Conception & Développement : Baudouin d'Aumeries
Co-Programmation & Développement : Marc-Olivier Méhu
Soutien technique & logistique : Manuel Goepfert

Contact : metmap@orbifly.com




SOURCES & CREDITS :

   NOAA